Time;durP1;ratioP1;P1;durP2;ratioP2;P2;SDS_P1;SDS_P2;PMS_P1;PMS_P2;Temp;Humidity;BMP_temperature;BMP_pressure;BME280_temperature;BME280_humidity;BME280_pressure;Samples;Min_cycle;Max_cycle;Signal;HPM_P1;HPM_P2
2022/05/08 00:02:01;;;;;;;;;;;14.70;99.90;;;;;;5117079;28;20258;-75
2022/05/08 00:04:28;;;;;;;;;;;14.70;99.90;;;;;;5116902;28;19908;-75
2022/05/08 00:06:54;;;;;;;;;;;14.80;99.90;;;;;;5116964;28;19961;-75
2022/05/08 00:09:21;;;;;;;;;;;14.80;99.90;;;;;;5117090;28;19911;-75
2022/05/08 00:11:47;;;;;;;;;;;14.90;99.90;;;;;;5116653;28;19915;-75
2022/05/08 00:14:14;;;;;;;;;;;14.90;99.90;;;;;;5116728;28;19961;-75
2022/05/08 00:16:41;;;;;;;;;;;15.00;99.90;;;;;;5116858;28;19911;-76
2022/05/08 00:19:07;;;;;;;;;;;15.00;99.90;;;;;;5116834;28;19960;-77
2022/05/08 00:21:34;;;;;;;;;;;15.00;99.90;;;;;;5116449;28;19908;-76
2022/05/08 00:24:01;;;;;;;;;;;15.00;99.90;;;;;;5116702;28;19912;-75
2022/05/08 00:26:27;;;;;;;;;;;15.10;99.90;;;;;;5116536;28;19960;-76
2022/05/08 00:28:55;;;;;;;;;;;15.20;99.90;;;;;;5116652;28;19908;-77
2022/05/08 00:31:22;;;;;;;;;;;15.20;99.90;;;;;;5116531;28;19907;-76
2022/05/08 00:33:49;;;;;;;;;;;15.30;99.90;;;;;;5116380;28;19912;-76
2022/05/08 00:36:15;;;;;;;;;;;15.30;99.90;;;;;;5116458;28;20414;-77
2022/05/08 00:38:42;;;;;;;;;;;15.30;99.90;;;;;;5115157;28;20286;-77
2022/05/08 00:41:09;;;;;;;;;;;15.40;99.90;;;;;;5116374;28;20358;-75
2022/05/08 00:43:38;;;;;;;;;;;15.40;99.90;;;;;;5114853;28;19930;-75
2022/05/08 00:46:05;;;;;;;;;;;15.50;99.90;;;;;;5116556;28;19915;-75
2022/05/08 00:48:33;;;;;;;;;;;15.50;99.90;;;;;;5116173;28;20346;-75
2022/05/08 00:51:00;;;;;;;;;;;15.60;99.90;;;;;;5115915;28;20010;-75
2022/05/08 00:53:28;;;;;;;;;;;15.60;99.90;;;;;;5116285;28;19918;-76
2022/05/08 00:55:55;;;;;;;;;;;15.70;99.90;;;;;;5115966;28;19915;-76
2022/05/08 00:58:22;;;;;;;;;;;15.80;99.90;;;;;;5116002;28;19938;-75
2022/05/08 01:00:49;;;;;;;;;;;15.90;99.90;;;;;;5116074;28;19908;-76
2022/05/08 01:03:16;;;;;;;;;;;16.20;99.90;;;;;;5115720;28;19908;-75
2022/05/08 01:05:43;;;;;;;;;;;16.40;99.80;;;;;;5113599;28;20311;-75
2022/05/08 01:08:10;;;;;;;;;;;16.60;99.40;;;;;;5116027;28;19947;-76
2022/05/08 01:10:37;;;;;;;;;;;16.90;99.90;;;;;;5115741;28;19914;-75
2022/05/08 01:13:05;;;;;;;;;;;16.90;99.20;;;;;;5115842;28;20359;-75
2022/05/08 01:15:42;;;;;;;;;;;17.50;99.50;;;;;;5115476;28;19973;-76
2022/05/08 01:18:09;;;;;;;;;;;17.60;98.40;;;;;;5115599;28;19920;-75
2022/05/08 01:20:36;;;;;;;;;;;17.90;99.10;;;;;;5114271;28;19960;-76
2022/05/08 01:23:03;;;;;;;;;;;17.80;98.10;;;;;;5115641;28;19907;-76
2022/05/08 01:25:30;;;;;;;;;;;17.50;98.40;;;;;;5115502;28;19908;-75
2022/05/08 01:27:56;;;;;;;;;;;17.40;98.80;;;;;;5115494;28;19914;-75
2022/05/08 01:30:23;;;;;;;;;;;17.20;98.40;;;;;;5115330;28;19908;-75
2022/05/08 01:32:50;;;;;;;;;;;17.10;98.40;;;;;;5115561;28;19915;-76
2022/05/08 01:35:16;;;;;;;;;;;17.20;98.20;;;;;;5115215;28;20326;-75
2022/05/08 01:37:43;;;;;;;;;;;17.10;98.20;;;;;;5114906;28;19931;-76
2022/05/08 01:40:10;;;;;;;;;;;17.10;97.90;;;;;;5115188;28;19973;-76
2022/05/08 01:42:37;;;;;;;;;;;17.20;98.00;;;;;;5115342;28;20273;-76
2022/05/08 01:45:03;;;;;;;;;;;17.30;97.90;;;;;;5115301;28;19999;-75
2022/05/08 01:50:15;;;;;;;;;;;17.10;97.40;;;;;;5115139;28;19967;-75
2022/05/08 01:52:41;;;;;;;;;;;17.00;97.10;;;;;;5115124;28;20426;-75
2022/05/08 01:55:08;;;;;;;;;;;17.00;97.80;;;;;;5117877;28;19912;-76
2022/05/08 01:57:35;;;;;;;;;;;17.00;97.80;;;;;;5115008;28;19923;-76
2022/05/08 02:00:02;;;;;;;;;;;17.20;97.80;;;;;;5115285;28;19908;-77
2022/05/08 02:02:28;;;;;;;;;;;17.20;97.30;;;;;;5115288;28;20373;-76
2022/05/08 02:04:55;;;;;;;;;;;17.20;97.00;;;;;;5115099;28;19915;-76
2022/05/08 02:07:22;;;;;;;;;;;17.20;97.40;;;;;;5115230;28;20286;-76
2022/05/08 02:09:49;;;;;;;;;;;17.10;97.60;;;;;;5114569;28;20350;-76
2022/05/08 02:12:15;;;;;;;;;;;17.10;97.00;;;;;;5114988;28;20071;-76
2022/05/08 02:14:43;;;;;;;;;;;17.10;98.00;;;;;;5114735;27;19915;-76
2022/05/08 02:17:10;;;;;;;;;;;17.30;97.80;;;;;;5114495;28;19912;-76
2022/05/08 02:19:37;;;;;;;;;;;17.40;97.40;;;;;;5114469;28;19919;-76
2022/05/08 02:22:03;;;;;;;;;;;17.40;97.30;;;;;;5114812;28;19914;-76
2022/05/08 02:24:30;;;;;;;;;;;17.50;97.00;;;;;;5114571;28;20124;-76
2022/05/08 02:26:57;;;;;;;;;;;17.50;97.50;;;;;;5114936;28;19907;-76
2022/05/08 02:29:23;;;;;;;;;;;17.50;96.40;;;;;;5114554;28;20003;-75
2022/05/08 02:31:50;;;;;;;;;;;17.50;96.80;;;;;;5114509;28;19962;-76
2022/05/08 02:34:16;;;;;;;;;;;17.60;96.50;;;;;;5114504;28;20358;-75
2022/05/08 02:36:43;;;;;;;;;;;17.50;96.70;;;;;;5114317;28;19908;-76
2022/05/08 02:39:10;;;;;;;;;;;17.50;96.90;;;;;;5114375;28;19912;-76
2022/05/08 02:41:36;;;;;;;;;;;17.40;97.00;;;;;;5114076;28;19914;-77
2022/05/08 02:44:05;;;;;;;;;;;17.50;97.20;;;;;;5114326;28;20363;-77
2022/05/08 02:46:31;;;;;;;;;;;17.40;96.70;;;;;;5114255;28;19915;-76
2022/05/08 02:48:58;;;;;;;;;;;17.30;97.40;;;;;;5114053;28;19976;-76
2022/05/08 02:51:25;;;;;;;;;;;17.40;97.60;;;;;;5114020;28;20308;-76
2022/05/08 02:53:51;;;;;;;;;;;17.60;97.30;;;;;;5113941;28;20262;-76
2022/05/08 02:59:03;;;;;;;;;;;17.50;97.10;;;;;;5113880;28;19922;-77
2022/05/08 03:01:29;;;;;;;;;;;17.60;97.60;;;;;;5114039;28;19931;-76
2022/05/08 03:03:56;;;;;;;;;;;17.70;97.60;;;;;;5113746;28;19907;-76
2022/05/08 03:06:23;;;;;;;;;;;17.80;97.20;;;;;;5113986;28;19915;-77
2022/05/08 03:08:51;;;;;;;;;;;17.70;97.40;;;;;;5113582;28;19908;-77
2022/05/08 03:11:28;;;;;;;;;;;17.60;97.30;;;;;;5113800;28;20313;-77
2022/05/08 03:13:56;;;;;;;;;;;17.50;97.40;;;;;;5113880;28;19961;-77
2022/05/08 03:16:24;;;;;;;;;;;17.50;97.50;;;;;;5113686;28;19960;-76
2022/05/08 03:18:51;;;;;;;;;;;17.60;97.70;;;;;;5113368;28;20371;-75
2022/05/08 03:21:18;;;;;;;;;;;17.60;97.30;;;;;;5113607;28;20334;-76
2022/05/08 03:23:45;;;;;;;;;;;17.70;97.60;;;;;;5113362;28;19908;-77
2022/05/08 03:26:15;;;;;;;;;;;17.80;97.80;;;;;;5113509;28;20333;-76
2022/05/08 03:28:42;;;;;;;;;;;17.90;96.90;;;;;;5116948;28;19973;-76
2022/05/08 03:31:09;;;;;;;;;;;18.00;97.00;;;;;;5117698;28;20270;-76
2022/05/08 03:33:37;;;;;;;;;;;18.00;96.80;;;;;;5117383;28;20373;-77
2022/05/08 03:36:04;;;;;;;;;;;17.80;97.50;;;;;;5117605;28;20310;-76
2022/05/08 03:38:31;;;;;;;;;;;17.70;97.50;;;;;;5117572;28;20354;-76
2022/05/08 03:40:58;;;;;;;;;;;17.70;97.50;;;;;;5116229;28;19908;-76
2022/05/08 03:43:24;;;;;;;;;;;17.70;97.50;;;;;;5117483;28;19907;-76
2022/05/08 03:45:51;;;;;;;;;;;17.90;97.40;;;;;;5117210;28;19912;-75
2022/05/08 03:48:18;;;;;;;;;;;17.90;97.10;;;;;;5117081;28;19910;-76
2022/05/08 03:50:45;;;;;;;;;;;17.90;97.20;;;;;;5117241;28;19920;-76
2022/05/08 03:53:12;;;;;;;;;;;17.80;97.40;;;;;;5117227;28;20277;-76
2022/05/08 03:55:39;;;;;;;;;;;17.80;98.00;;;;;;5117052;28;20285;-76
2022/05/08 03:58:05;;;;;;;;;;;17.80;97.70;;;;;;5117219;28;19963;-76
2022/05/08 04:00:32;;;;;;;;;;;17.90;97.50;;;;;;5117192;28;19907;-75
2022/05/08 04:03:00;;;;;;;;;;;17.90;97.60;;;;;;5116994;28;19907;-76
2022/05/08 04:05:29;;;;;;;;;;;17.90;96.90;;;;;;5116885;28;19960;-76
2022/05/08 04:07:55;;;;;;;;;;;17.90;97.00;;;;;;5117176;28;19942;-76
2022/05/08 04:10:22;;;;;;;;;;;18.00;96.40;;;;;;5116994;28;19912;-76
2022/05/08 04:12:48;;;;;;;;;;;17.90;97.10;;;;;;5117054;28;19930;-76
2022/05/08 04:18:00;;;;;;;;;;;18.00;97.10;;;;;;5117033;28;19970;-76
2022/05/08 04:20:27;;;;;;;;;;;18.00;96.90;;;;;;5116890;28;19915;-76
2022/05/08 04:25:38;;;;;;;;;;;17.90;97.00;;;;;;5075984;28;19915;-76
2022/05/08 04:28:04;;;;;;;;;;;17.90;99.10;;;;;;5076022;28;19909;-76
2022/05/08 04:30:31;;;;;;;;;;;17.80;99.50;;;;;;5076067;28;19920;-77
2022/05/08 04:32:58;;;;;;;;;;;17.80;98.90;;;;;;5076185;28;19915;-78
2022/05/08 04:35:25;;;;;;;;;;;17.70;99.90;;;;;;5075763;28;20347;-78
2022/05/08 04:37:51;;;;;;;;;;;17.60;99.90;;;;;;5074977;28;19917;-78
2022/05/08 04:40:18;;;;;;;;;;;17.60;99.90;;;;;;5074418;28;20359;-78
2022/05/08 04:42:44;;;;;;;;;;;17.80;99.90;;;;;;5075845;28;19991;-78
2022/05/08 04:45:11;;;;;;;;;;;17.70;99.90;;;;;;5075860;28;20386;-78
2022/05/08 04:47:38;;;;;;;;;;;17.70;99.90;;;;;;5075681;28;19909;-78
2022/05/08 04:50:05;;;;;;;;;;;17.70;99.90;;;;;;5075437;28;20015;-78
2022/05/08 04:52:31;;;;;;;;;;;17.80;99.90;;;;;;5075183;28;19989;-78
2022/05/08 04:54:59;;;;;;;;;;;17.60;99.90;;;;;;5075444;28;19912;-79
2022/05/08 04:57:26;;;;;;;;;;;17.60;99.90;;;;;;5075628;28;19912;-78
2022/05/08 04:59:52;;;;;;;;;;;17.50;99.90;;;;;;5075294;28;20389;-79
2022/05/08 05:02:19;;;;;;;;;;;17.50;99.90;;;;;;5075452;28;19916;-79
2022/05/08 05:04:46;;;;;;;;;;;17.50;99.90;;;;;;5075156;28;19909;-78
2022/05/08 05:07:12;;;;;;;;;;;17.60;99.90;;;;;;5075186;28;20294;-78
2022/05/08 05:09:39;;;;;;;;;;;17.70;99.90;;;;;;5074937;28;19908;-79
2022/05/08 05:12:06;;;;;;;;;;;17.70;99.90;;;;;;5075302;28;20007;-78
2022/05/08 05:14:33;;;;;;;;;;;17.70;99.90;;;;;;5075376;28;19909;-79
2022/05/08 05:17:00;;;;;;;;;;;17.50;99.90;;;;;;5075103;28;20003;-79
2022/05/08 05:19:27;;;;;;;;;;;17.50;99.90;;;;;;5074860;28;20274;-78
2022/05/08 05:21:53;;;;;;;;;;;17.40;99.90;;;;;;5074443;28;19912;-78
2022/05/08 05:24:20;;;;;;;;;;;17.30;99.90;;;;;;5074991;28;19952;-79
2022/05/08 05:26:47;;;;;;;;;;;17.40;99.90;;;;;;5074959;28;20282;-79
2022/05/08 05:29:16;;;;;;;;;;;17.50;99.90;;;;;;5074817;28;20003;-79
2022/05/08 05:31:44;;;;;;;;;;;17.60;99.90;;;;;;5074669;28;19954;-79
2022/05/08 05:34:11;;;;;;;;;;;17.60;99.90;;;;;;5074698;28;19962;-79
2022/05/08 05:36:37;;;;;;;;;;;17.70;99.90;;;;;;5074577;28;20348;-79
2022/05/08 05:39:04;;;;;;;;;;;17.60;99.90;;;;;;5074757;28;19939;-79
2022/05/08 05:41:32;;;;;;;;;;;17.50;99.90;;;;;;5074655;28;20324;-79
2022/05/08 05:43:59;;;;;;;;;;;17.50;99.90;;;;;;5074784;28;20283;-78
2022/05/08 05:49:10;;;;;;;;;;;17.40;99.90;;;;;;5074181;28;19915;-78
2022/05/08 05:51:37;;;;;;;;;;;17.30;99.90;;;;;;5073427;28;19920;-78
2022/05/08 05:54:03;;;;;;;;;;;17.30;99.90;;;;;;5074388;28;19916;-79
2022/05/08 05:56:30;;;;;;;;;;;17.20;99.90;;;;;;5074212;28;19916;-79
2022/05/08 05:58:57;;;;;;;;;;;17.30;99.90;;;;;;5074105;28;19955;-79
2022/05/08 06:01:23;;;;;;;;;;;17.40;99.90;;;;;;5074186;28;19912;-78
2022/05/08 06:03:50;;;;;;;;;;;17.30;99.90;;;;;;5073857;28;19913;-79
2022/05/08 06:06:17;;;;;;;;;;;17.40;99.90;;;;;;5074280;28;19947;-79
2022/05/08 06:08:44;;;;;;;;;;;17.40;99.90;;;;;;5073794;28;19909;-79
2022/05/08 06:11:11;;;;;;;;;;;17.20;99.90;;;;;;5074080;28;19958;-79
2022/05/08 06:13:37;;;;;;;;;;;17.20;99.90;;;;;;5073886;28;19962;-79
2022/05/08 06:16:04;;;;;;;;;;;17.10;99.90;;;;;;5073987;28;20343;-79
2022/05/08 06:18:31;;;;;;;;;;;17.00;99.90;;;;;;5073725;28;19920;-78
2022/05/08 06:20:57;;;;;;;;;;;17.20;99.90;;;;;;5073868;28;20390;-79
2022/05/08 06:23:25;;;;;;;;;;;17.20;99.90;;;;;;5073311;28;19909;-79
2022/05/08 06:25:52;;;;;;;;;;;17.20;99.90;;;;;;5073499;28;19995;-78
2022/05/08 06:28:19;;;;;;;;;;;17.20;99.90;;;;;;5073624;28;19943;-78
2022/05/08 06:30:49;;;;;;;;;;;17.10;99.90;;;;;;5073714;28;19978;-78
2022/05/08 06:33:16;;;;;;;;;;;17.10;99.90;;;;;;5073547;28;19954;-78
2022/05/08 06:35:42;;;;;;;;;;;17.10;99.90;;;;;;5073333;28;19909;-78
2022/05/08 06:38:12;;;;;;;;;;;17.00;99.90;;;;;;5072968;28;19923;-78
2022/05/08 06:40:39;;;;;;;;;;;16.90;99.90;;;;;;5105015;28;19909;-78
2022/05/08 06:43:06;;;;;;;;;;;16.70;99.90;;;;;;5073486;28;20367;-78
2022/05/08 06:45:33;;;;;;;;;;;16.70;99.90;;;;;;5073245;28;19915;-78
2022/05/08 06:48:00;;;;;;;;;;;16.70;99.90;;;;;;5073256;28;19935;-78
2022/05/08 06:50:29;;;;;;;;;;;16.60;99.90;;;;;;5073240;28;19943;-78
2022/05/08 06:52:55;;;;;;;;;;;16.50;99.90;;;;;;5072972;28;19909;-78
2022/05/08 06:55:22;;;;;;;;;;;16.40;99.90;;;;;;5074940;28;19935;-77
2022/05/08 06:57:49;;;;;;;;;;;16.40;99.90;;;;;;5109001;28;19916;-78
2022/05/08 07:03:02;;;;;;;;;;;16.40;99.90;;;;;;5112585;28;19914;-78
2022/05/08 07:05:29;;;;;;;;;;;16.40;99.90;;;;;;5113229;28;19950;-78
2022/05/08 07:07:56;;;;;;;;;;;16.40;99.90;;;;;;5113834;28;19908;-78
2022/05/08 07:10:23;;;;;;;;;;;16.30;99.90;;;;;;5113822;28;19908;-78
2022/05/08 07:12:49;;;;;;;;;;;16.30;99.90;;;;;;5113855;28;19908;-78
2022/05/08 07:15:16;;;;;;;;;;;16.20;99.90;;;;;;5113770;28;19979;-77
2022/05/08 07:17:43;;;;;;;;;;;16.10;99.90;;;;;;5113214;28;19911;-77
2022/05/08 07:20:10;;;;;;;;;;;16.00;99.90;;;;;;5113818;28;19914;-77
2022/05/08 07:22:37;;;;;;;;;;;16.00;99.90;;;;;;5113530;28;20398;-78
2022/05/08 07:25:03;;;;;;;;;;;16.00;99.90;;;;;;5113533;28;19912;-78
2022/05/08 07:27:32;;;;;;;;;;;15.90;99.90;;;;;;5113259;28;20278;-78
2022/05/08 07:29:59;;;;;;;;;;;15.80;99.90;;;;;;5113636;28;20007;-78
2022/05/08 07:32:25;;;;;;;;;;;15.80;99.90;;;;;;5113417;28;19907;-78
2022/05/08 07:37:37;;;;;;;;;;;15.70;99.90;;;;;;5113420;28;19941;-75
2022/05/08 07:40:04;;;;;;;;;;;15.70;99.90;;;;;;5113445;28;19994;-75
2022/05/08 07:42:30;;;;;;;;;;;15.60;99.90;;;;;;5113406;28;20351;-75
2022/05/08 07:44:57;;;;;;;;;;;15.60;99.90;;;;;;5113588;28;19987;-77
2022/05/08 07:47:24;;;;;;;;;;;15.60;99.90;;;;;;5113052;28;19912;-78
2022/05/08 07:49:51;;;;;;;;;;;15.60;99.90;;;;;;5109966;28;19924;-77
2022/05/08 07:52:17;;;;;;;;;;;15.60;99.90;;;;;;5097280;28;20290;-77
2022/05/08 07:54:47;;;;;;;;;;;15.50;99.90;;;;;;5090654;28;19912;-77
2022/05/08 07:57:14;;;;;;;;;;;15.50;99.90;;;;;;5089111;28;19968;-78
2022/05/08 07:59:41;;;;;;;;;;;15.60;99.90;;;;;;5088721;28;19960;-78
2022/05/08 08:02:08;;;;;;;;;;;15.50;99.90;;;;;;5088396;28;19912;-78
2022/05/08 08:04:37;;;;;;;;;;;15.50;99.90;;;;;;5088714;28;20078;-75
2022/05/08 08:07:04;;;;;;;;;;;15.50;99.90;;;;;;5088791;28;20375;-76
2022/05/08 08:09:30;;;;;;;;;;;15.50;99.90;;;;;;5088654;28;19920;-75
2022/05/08 08:11:57;;;;;;;;;;;15.50;99.90;;;;;;5088883;28;19912;-75
2022/05/08 08:14:24;;;;;;;;;;;15.50;99.90;;;;;;5092916;28;19912;-75
2022/05/08 08:16:50;;;;;;;;;;;15.60;99.90;;;;;;5094196;28;20632;-78
2022/05/08 08:19:23;;;;;;;;;;;15.60;99.90;;;;;;5094353;28;20287;-78
2022/05/08 08:21:50;;;;;;;;;;;15.50;99.90;;;;;;5093544;28;20354;-77
2022/05/08 08:24:16;;;;;;;;;;;15.60;99.90;;;;;;5093913;28;20410;-78
2022/05/08 08:26:43;;;;;;;;;;;15.50;99.90;;;;;;5094213;28;20355;-78
2022/05/08 08:29:10;;;;;;;;;;;15.60;99.90;;;;;;5093891;28;19999;-77
2022/05/08 08:31:36;;;;;;;;;;;15.50;99.90;;;;;;5093838;28;19935;-77
2022/05/08 08:34:03;;;;;;;;;;;15.60;99.90;;;;;;5094124;28;20427;-77
2022/05/08 08:36:29;;;;;;;;;;;15.60;99.90;;;;;;5093951;28;19909;-77
2022/05/08 08:38:56;;;;;;;;;;;15.70;99.90;;;;;;5093991;28;19923;-77
2022/05/08 08:41:32;;;;;;;;;;;15.80;99.90;;;;;;5093501;28;19962;-77
2022/05/08 08:49:35;;;;;;;;;;;16.10;99.90;;;;;;5097858;28;19965;-77
2022/05/08 08:52:02;;;;;;;;;;;16.10;99.90;;;;;;5114031;28;19908;-77
2022/05/08 08:54:29;;;;;;;;;;;16.10;99.90;;;;;;5113619;28;19911;-77
2022/05/08 08:56:55;;;;;;;;;;;16.10;99.90;;;;;;5113460;28;19918;-77
2022/05/08 08:59:22;;;;;;;;;;;16.10;99.90;;;;;;5114090;28;19916;-77
2022/05/08 09:01:49;;;;;;;;;;;16.10;99.90;;;;;;5113419;28;19912;-77
2022/05/08 09:04:18;;;;;;;;;;;16.10;99.90;;;;;;5114255;28;20058;-77
2022/05/08 09:06:45;;;;;;;;;;;16.00;99.90;;;;;;5115874;28;20323;-77
2022/05/08 09:09:41;;;;;;;;;;;16.00;99.90;;;;;;5116040;28;19953;-77
2022/05/08 09:12:16;;;;;;;;;;;15.90;99.90;;;;;;5102472;28;19912;-77
2022/05/08 09:14:42;;;;;;;;;;;15.80;99.90;;;;;;5116050;28;19908;-77
2022/05/08 09:17:09;;;;;;;;;;;15.70;99.90;;;;;;5115705;28;19908;-77
2022/05/08 09:19:40;;;;;;;;;;;15.60;99.90;;;;;;5115534;28;19908;-77
2022/05/08 09:22:08;;;;;;;;;;;15.40;99.90;;;;;;5115545;28;19908;-77
2022/05/08 09:24:38;;;;;;;;;;;15.40;99.90;;;;;;5115160;28;19997;-77
2022/05/08 09:27:15;;;;;;;;;;;15.30;99.90;;;;;;5115512;28;19931;-77
2022/05/08 09:29:42;;;;;;;;;;;15.30;99.90;;;;;;5115279;28;20006;-77
2022/05/08 09:32:09;;;;;;;;;;;15.20;99.90;;;;;;5097072;28;19931;-77
2022/05/08 09:34:57;;;;;;;;;;;15.20;99.90;;;;;;5115554;28;20057;-76
2022/05/08 09:37:24;;;;;;;;;;;15.10;99.90;;;;;;5115450;28;19911;-77
2022/05/08 09:39:51;;;;;;;;;;;15.10;99.90;;;;;;5115197;28;20389;-77
2022/05/08 09:42:37;;;;;;;;;;;15.10;99.90;;;;;;5115384;28;19907;-77
2022/05/08 09:45:10;;;;;;;;;;;15.00;99.90;;;;;;5113180;28;20358;-77
2022/05/08 09:47:44;;;;;;;;;;;15.00;99.90;;;;;;5093185;28;20283;-77
2022/05/08 09:50:11;;;;;;;;;;;15.00;99.90;;;;;;5094757;28;20062;-77
2022/05/08 09:52:39;;;;;;;;;;;15.10;99.90;;;;;;5094774;28;19908;-77
2022/05/08 09:55:09;;;;;;;;;;;15.10;99.90;;;;;;5094414;28;20317;-77
2022/05/08 09:57:36;;;;;;;;;;;15.10;99.90;;;;;;5094435;28;20019;-76
2022/05/08 10:00:03;;;;;;;;;;;15.10;99.90;;;;;;5094609;28;19919;-76
2022/05/08 10:02:30;;;;;;;;;;;15.10;99.90;;;;;;5093916;28;19908;-77
2022/05/08 10:04:57;;;;;;;;;;;15.00;99.90;;;;;;5094481;28;19915;-77
2022/05/08 10:07:25;;;;;;;;;;;14.90;99.90;;;;;;5094368;28;19930;-78
2022/05/08 10:15:43;;;;;;;;;;;14.90;99.90;;;;;;5094385;28;19918;-77
2022/05/08 10:18:22;;;;;;;;;;;14.90;99.90;;;;;;5093542;28;19977;-78
2022/05/08 10:21:02;;;;;;;;;;;14.90;99.90;;;;;;5094118;28;19961;-78
2022/05/08 10:23:36;;;;;;;;;;;14.90;99.90;;;;;;5094232;28;19930;-78
2022/05/08 10:26:25;;;;;;;;;;;14.80;99.90;;;;;;5093948;28;19995;-78
2022/05/08 10:29:04;;;;;;;;;;;14.80;99.90;;;;;;5091045;28;19915;-78
2022/05/08 10:31:41;;;;;;;;;;;14.80;99.90;;;;;;5093176;28;19912;-78
2022/05/08 10:34:08;;;;;;;;;;;14.70;99.90;;;;;;5094112;28;20420;-78
2022/05/08 10:36:35;;;;;;;;;;;14.70;99.90;;;;;;5093955;28;19916;-78
2022/05/08 10:39:19;;;;;;;;;;;14.70;99.90;;;;;;5093895;28;19916;-78
2022/05/08 10:41:47;;;;;;;;;;;14.70;99.90;;;;;;5093834;28;19915;-78
2022/05/08 10:44:32;;;;;;;;;;;14.70;99.90;;;;;;5093766;28;19914;-78
2022/05/08 10:47:17;;;;;;;;;;;14.70;99.90;;;;;;5093088;28;19915;-78
2022/05/08 10:49:45;;;;;;;;;;;14.70;99.90;;;;;;5093376;28;19923;-77
2022/05/08 10:52:12;;;;;;;;;;;14.80;99.90;;;;;;5093775;28;19964;-78
2022/05/08 10:54:54;;;;;;;;;;;14.80;99.90;;;;;;5093724;28;20008;-78
2022/05/08 10:57:41;;;;;;;;;;;14.80;99.90;;;;;;5093437;28;19916;-77
2022/05/08 11:00:09;;;;;;;;;;;14.80;99.90;;;;;;5093703;28;19914;-78
2022/05/08 11:02:42;;;;;;;;;;;14.80;99.90;;;;;;5093122;28;19912;-77
2022/05/08 11:05:10;;;;;;;;;;;14.80;99.90;;;;;;5093702;28;19912;-78
2022/05/08 11:07:47;;;;;;;;;;;14.80;99.90;;;;;;5093331;28;20277;-77
2022/05/08 11:10:18;;;;;;;;;;;15.00;99.90;;;;;;5093625;28;19912;-78
2022/05/08 11:12:59;;;;;;;;;;;15.00;99.90;;;;;;5093546;28;20006;-77
2022/05/08 11:15:29;;;;;;;;;;;15.00;99.90;;;;;;5092779;28;19908;-77
2022/05/08 11:18:12;;;;;;;;;;;15.10;99.90;;;;;;5093249;28;19916;-78
2022/05/08 11:20:59;;;;;;;;;;;15.10;99.90;;;;;;5093371;28;19915;-78
2022/05/08 11:23:30;;;;;;;;;;;15.20;99.90;;;;;;5093376;28;19986;-77
2022/05/08 11:25:58;;;;;;;;;;;15.20;99.90;;;;;;5093420;28;19973;-77
2022/05/08 11:28:25;;;;;;;;;;;15.20;99.90;;;;;;5093123;28;19916;-77
2022/05/08 11:30:52;;;;;;;;;;;15.20;99.90;;;;;;5092599;28;19916;-78
2022/05/08 11:36:06;;;;;;;;;;;15.20;99.90;;;;;;5093614;28;19916;-78
2022/05/08 11:38:40;;;;;;;;;;;15.20;99.90;;;;;;5093203;28;20011;-78
2022/05/08 11:41:08;;;;;;;;;;;15.30;99.90;;;;;;5092951;28;19916;-78
2022/05/08 11:43:39;;;;;;;;;;;15.30;99.90;;;;;;5093064;28;19914;-78
2022/05/08 11:46:09;;;;;;;;;;;15.40;99.90;;;;;;5092569;28;20366;-76
2022/05/08 11:48:40;;;;;;;;;;;15.50;99.90;;;;;;5094492;28;19998;-78
2022/05/08 11:51:10;;;;;;;;;;;15.50;99.90;;;;;;5097026;28;19923;-78
2022/05/08 11:53:45;;;;;;;;;;;15.60;99.90;;;;;;5096982;28;20367;-78
2022/05/08 11:56:32;;;;;;;;;;;15.60;99.90;;;;;;5097158;28;20003;-79
2022/05/08 11:58:59;;;;;;;;;;;15.60;99.90;;;;;;5096915;28;20268;-79
2022/05/08 12:01:40;;;;;;;;;;;15.60;99.90;;;;;;5096208;28;19999;-80
2022/05/08 12:04:22;;;;;;;;;;;15.60;99.90;;;;;;5096870;28;19908;-79
2022/05/08 12:06:56;;;;;;;;;;;15.50;99.90;;;;;;5096890;28;19916;-80
2022/05/08 12:09:22;;;;;;;;;;;15.50;99.90;;;;;;5096974;28;19908;-79
2022/05/08 12:11:49;;;;;;;;;;;15.40;99.90;;;;;;5096325;28;20361;-80
2022/05/08 12:14:16;;;;;;;;;;;15.40;99.90;;;;;;5096779;28;19914;-80
2022/05/08 12:16:58;;;;;;;;;;;15.30;99.90;;;;;;5095185;28;19958;-79
2022/05/08 12:19:24;;;;;;;;;;;15.20;99.90;;;;;;5096527;28;19916;-80
2022/05/08 12:21:51;;;;;;;;;;;15.20;99.90;;;;;;5096470;28;19981;-79
2022/05/08 12:24:18;;;;;;;;;;;15.10;99.90;;;;;;5096590;28;19909;-79
2022/05/08 12:26:45;;;;;;;;;;;15.10;99.90;;;;;;5096726;28;19915;-80
2022/05/08 12:29:18;;;;;;;;;;;15.00;99.90;;;;;;5096498;28;19959;-79
2022/05/08 12:31:45;;;;;;;;;;;14.90;99.90;;;;;;5096220;28;19946;-79
2022/05/08 12:34:13;;;;;;;;;;;14.90;99.90;;;;;;5096424;28;19953;-79
2022/05/08 12:36:40;;;;;;;;;;;14.90;99.90;;;;;;5096209;28;20361;-78
2022/05/08 12:39:08;;;;;;;;;;;14.80;99.90;;;;;;5096202;28;19925;-79
2022/05/08 12:41:35;;;;;;;;;;;14.70;99.90;;;;;;5096106;28;19915;-80
2022/05/08 12:44:02;;;;;;;;;;;14.70;99.90;;;;;;5096393;28;19909;-81
2022/05/08 12:46:29;;;;;;;;;;;14.70;99.90;;;;;;5096109;28;19915;-79
2022/05/08 12:49:02;;;;;;;;;;;14.70;99.90;;;;;;5096148;28;19953;-79
2022/05/08 12:51:29;;;;;;;;;;;14.60;99.90;;;;;;5096077;28;19928;-79
2022/05/08 12:53:56;;;;;;;;;;;14.60;99.90;;;;;;5096029;28;19908;-79
2022/05/08 12:56:24;;;;;;;;;;;14.50;99.90;;;;;;5095856;28;19912;-79
2022/05/08 13:01:35;;;;;;;;;;;14.40;99.90;;;;;;5094618;28;19915;-76
2022/05/08 13:04:03;;;;;;;;;;;14.40;99.90;;;;;;5095845;28;20008;-76
2022/05/08 13:06:30;;;;;;;;;;;14.40;99.90;;;;;;5095611;28;19916;-76
2022/05/08 13:08:56;;;;;;;;;;;14.40;99.90;;;;;;5095522;28;20367;-76
2022/05/08 13:11:23;;;;;;;;;;;14.40;99.90;;;;;;5095675;28;19952;-76
2022/05/08 13:13:50;;;;;;;;;;;14.40;99.90;;;;;;5095371;28;19915;-78
2022/05/08 13:16:16;;;;;;;;;;;14.40;99.90;;;;;;5095462;28;19915;-78
2022/05/08 13:18:43;;;;;;;;;;;14.40;99.90;;;;;;5095505;28;19916;-78
2022/05/08 13:21:10;;;;;;;;;;;14.40;99.90;;;;;;5095469;28;19908;-78
2022/05/08 13:23:37;;;;;;;;;;;14.50;99.90;;;;;;5095222;28;19909;-79
2022/05/08 13:26:04;;;;;;;;;;;14.50;99.90;;;;;;5095355;28;19915;-78
2022/05/08 13:28:33;;;;;;;;;;;14.50;99.90;;;;;;5095453;28;19952;-79
2022/05/08 13:31:00;;;;;;;;;;;14.50;99.90;;;;;;5095339;28;19947;-78
2022/05/08 13:33:26;;;;;;;;;;;14.50;99.90;;;;;;5077202;28;19908;-78
2022/05/08 13:35:53;;;;;;;;;;;14.60;99.90;;;;;;5094977;28;20370;-78
2022/05/08 13:38:29;;;;;;;;;;;14.60;99.90;;;;;;5095071;28;19969;-78
2022/05/08 13:40:57;;;;;;;;;;;14.60;99.90;;;;;;5095193;28;20007;-78
2022/05/08 13:43:24;;;;;;;;;;;14.70;99.90;;;;;;5095016;28;19950;-79
2022/05/08 13:45:51;;;;;;;;;;;14.60;99.90;;;;;;5094671;28;19916;-78
2022/05/08 13:48:17;;;;;;;;;;;14.80;99.90;;;;;;5076599;28;19908;-78
2022/05/08 13:50:44;;;;;;;;;;;15.00;99.90;;;;;;5094505;28;19924;-78
2022/05/08 13:53:11;;;;;;;;;;;15.00;99.90;;;;;;5094888;28;19935;-78
2022/05/08 13:55:43;;;;;;;;;;;15.10;99.90;;;;;;5094582;28;19943;-78
2022/05/08 13:58:10;;;;;;;;;;;14.90;99.90;;;;;;5094578;28;19923;-78
2022/05/08 14:00:38;;;;;;;;;;;14.90;99.90;;;;;;5094508;28;19915;-78
2022/05/08 14:03:09;;;;;;;;;;;14.90;99.90;;;;;;5094597;28;19908;-78
2022/05/08 14:05:37;;;;;;;;;;;14.90;99.90;;;;;;5094343;28;20317;-78
2022/05/08 14:08:04;;;;;;;;;;;14.90;99.90;;;;;;5094442;28;19908;-79
2022/05/08 14:10:31;;;;;;;;;;;14.90;99.90;;;;;;5094234;28;19973;-78
2022/05/08 14:12:58;;;;;;;;;;;14.90;99.90;;;;;;5094205;28;19961;-77
2022/05/08 14:15:24;;;;;;;;;;;15.00;99.90;;;;;;5094230;28;19915;-77
2022/05/08 14:17:51;;;;;;;;;;;15.10;99.90;;;;;;5094108;28;19927;-78
2022/05/08 14:20:18;;;;;;;;;;;15.10;99.90;;;;;;5094501;28;20331;-78
2022/05/08 14:22:45;;;;;;;;;;;15.10;99.90;;;;;;5094407;28;19915;-78
2022/05/08 14:25:12;;;;;;;;;;;15.10;99.90;;;;;;5094333;28;19954;-78
2022/05/08 14:27:39;;;;;;;;;;;15.00;99.90;;;;;;5094059;28;20346;-78
2022/05/08 14:30:09;;;;;;;;;;;14.90;99.90;;;;;;5094120;28;19919;-78
2022/05/08 14:38:12;;;;;;;;;;;14.80;99.90;;;;;;5094205;28;20026;-78
2022/05/08 14:40:39;;;;;;;;;;;14.80;99.90;;;;;;5093991;28;19915;-77
2022/05/08 14:43:10;;;;;;;;;;;14.70;99.90;;;;;;5094122;28;20304;-78
2022/05/08 14:45:37;;;;;;;;;;;14.70;99.90;;;;;;5093698;28;19908;-78
2022/05/08 14:48:04;;;;;;;;;;;14.60;99.90;;;;;;5093890;28;20381;-78
2022/05/08 14:50:31;;;;;;;;;;;14.70;99.90;;;;;;5093730;28;20427;-78
2022/05/08 14:53:00;;;;;;;;;;;14.60;99.90;;;;;;5093740;28;20416;-78
2022/05/08 14:55:27;;;;;;;;;;;14.60;99.90;;;;;;5093769;28;20034;-78
2022/05/08 14:57:54;;;;;;;;;;;14.60;99.90;;;;;;5093529;28;19919;-77
2022/05/08 15:00:22;;;;;;;;;;;14.60;99.90;;;;;;5093728;28;19920;-78
2022/05/08 15:02:49;;;;;;;;;;;14.60;99.90;;;;;;5093668;28;19931;-78
2022/05/08 15:05:15;;;;;;;;;;;14.50;99.90;;;;;;5093506;28;19915;-76